Time;durP1;ratioP1;P1;durP2;ratioP2;P2;SDS_P1;SDS_P2;PMS_P1;PMS_P2;Temp;Humidity;BMP_temperature;BMP_pressure;BME280_temperature;BME280_humidity;BME280_pressure;Samples;Min_cycle;Max_cycle;Signal;HPM_P1;HPM_P2
2023/06/11 00:00:30;;;;;;;6.83;5.53;;;;;;;25.32;56.07;99952.22;5044561;28;20869;-74
2023/06/11 00:02:56;;;;;;;7.37;5.57;;;;;;;25.31;56.33;99957.22;5033852;28;20174;-74
2023/06/11 00:05:25;;;;;;;5.57;4.70;;;;;;;25.32;56.21;99947.28;5034474;28;20217;-74
2023/06/11 00:07:51;;;;;;;5.50;4.63;;;;;;;25.31;56.32;99957.22;5033690;28;21225;-74
2023/06/11 00:10:16;;;;;;;6.87;5.43;;;;;;;25.32;56.30;99960.91;5044634;28;20506;-74
2023/06/11 00:12:42;;;;;;;8.70;4.77;;;;;;;25.30;56.51;99958.47;5015555;28;20223;-74
2023/06/11 00:15:08;;;;;;;5.60;5.03;;;;;;;25.29;56.43;99962.59;5034162;28;20234;-74
2023/06/11 00:17:34;;;;;;;5.53;4.80;;;;;;;25.29;56.04;99962.59;5028345;28;20434;-74
2023/06/11 00:20:01;;;;;;;6.40;5.57;;;;;;;25.29;56.39;99965.47;5012720;28;20187;-74
2023/06/11 00:22:30;;;;;;;6.37;5.33;;;;;;;25.29;56.21;99961.78;5029541;28;20214;-74
2023/06/11 00:24:56;;;;;;;6.43;5.23;;;;;;;25.29;56.08;99968.38;5017105;28;20693;-74
2023/06/11 00:27:22;;;;;;;7.70;4.93;;;;;;;25.28;56.13;99963.06;5046067;28;20520;-74
2023/06/11 00:29:47;;;;;;;6.53;5.43;;;;;;;25.28;56.01;99963.06;5031022;28;20711;-75
2023/06/11 00:32:13;;;;;;;6.07;5.10;;;;;;;25.28;56.24;99965.94;5030713;28;20175;-75
2023/06/11 00:34:38;;;;;;;5.93;5.33;;;;;;;25.28;56.67;99963.84;5034830;28;20195;-75
2023/06/11 00:37:04;;;;;;;6.50;5.27;;;;;;;25.27;56.50;99959.31;5035413;28;20187;-75
2023/06/11 00:39:29;;;;;;;6.60;5.23;;;;;;;25.27;56.28;99968.00;5018267;28;20188;-72
2023/06/11 00:41:57;;;;;;;7.43;5.33;;;;;;;25.27;55.73;99970.06;5034931;28;20429;-72
2023/06/11 00:44:22;;;;;;;6.20;5.23;;;;;;;25.27;56.19;99970.88;5035543;28;20194;-73
2023/06/11 00:46:51;;;;;;;6.00;5.40;;;;;;;25.26;56.45;99960.59;5033048;28;20418;-72
2023/06/11 00:49:16;;;;;;;5.93;5.23;;;;;;;25.27;56.67;99967.16;5024680;28;20199;-73
2023/06/11 00:51:42;;;;;;;5.47;4.93;;;;;;;25.26;56.50;99968.44;5051366;28;20480;-73
2023/06/11 00:54:16;;;;;;;6.30;5.40;;;;;;;25.25;56.11;99967.63;5049733;28;20172;-73
2023/06/11 00:56:47;;;;;;;6.20;5.30;;;;;;;25.25;56.34;99967.63;5051164;28;20180;-72
2023/06/11 00:59:13;;;;;;;6.03;5.43;;;;;;;25.27;56.10;99970.06;5051887;28;20940;-72
2023/06/11 01:02:01;;;;;;;5.90;5.10;;;;;;;25.26;56.31;99966.38;5034643;28;20445;-72
2023/06/11 01:04:26;;;;;;;6.07;4.57;;;;;;;25.24;56.67;99971.72;5041141;28;20198;-72
2023/06/11 01:06:54;;;;;;;6.20;5.30;;;;;;;25.24;56.28;99965.94;5029621;28;20425;-73
2023/06/11 01:09:21;;;;;;;7.87;5.20;;;;;;;25.25;56.63;99969.66;5027276;28;20195;-73
2023/06/11 01:11:48;;;;;;;5.37;4.70;;;;;;;25.25;56.55;99966.75;5040493;28;20490;-73
2023/06/11 01:14:16;;;;;;;6.37;5.53;;;;;;;25.24;56.35;99965.94;5014907;28;20442;-73
2023/06/11 01:16:56;;;;;;;5.87;5.27;;;;;;;25.24;56.29;99971.72;5018565;28;20515;-72
2023/06/11 01:19:52;;;;;;;6.00;5.40;;;;;;;25.24;56.59;99970.91;5032973;28;20510;-72
2023/06/11 01:22:49;;;;;;;5.90;5.30;;;;;;;25.24;56.01;99968.03;5032611;28;20419;-72
2023/06/11 01:25:44;;;;;;;6.80;5.73;;;;;;;25.23;56.60;99970.09;5022781;28;20475;-73
2023/06/11 01:28:10;;;;;;;6.00;5.40;;;;;;;25.23;56.73;99969.28;5048841;28;20423;-73
2023/06/11 01:30:37;;;;;;;5.17;4.50;;;;;;;25.22;56.43;99968.44;5050034;28;20464;-72
2023/06/11 01:33:03;;;;;;;8.13;5.70;;;;;;;25.22;56.46;99974.22;5019034;28;20449;-72
2023/06/11 01:35:28;;;;;;;5.70;5.10;;;;;;;25.22;56.41;99962.69;5033416;28;20418;-72
2023/06/11 01:37:57;;;;;;;6.50;5.00;;;;;;;25.22;56.73;99977.13;5031570;28;20277;-72
2023/06/11 01:40:23;;;;;;;7.10;5.20;;;;;;;25.22;56.93;99974.22;5034215;28;20301;-72
2023/06/11 01:42:49;;;;;;;6.00;5.10;;;;;;;25.22;56.42;99970.50;5014002;28;20534;-73
2023/06/11 01:45:16;;;;;;;6.17;5.57;;;;;;;25.21;56.29;99974.66;5033472;28;20182;-73
2023/06/11 01:47:44;;;;;;;6.23;5.63;;;;;;;25.20;56.58;99982.53;5029650;28;20253;-72
2023/06/11 01:50:11;;;;;;;7.00;6.13;;;;;;;25.20;56.22;99975.91;5029773;28;20469;-72
2023/06/11 01:52:38;;;;;;;7.13;5.37;;;;;;;25.20;56.48;99982.53;5016906;28;21262;-72
2023/06/11 01:55:04;;;;;;;6.07;5.37;;;;;;;25.19;56.36;99975.09;5014663;28;21041;-72
2023/06/11 01:57:30;;;;;;;9.60;5.37;;;;;;;25.20;56.95;99987.47;5016394;28;20439;-72
2023/06/11 01:59:55;;;;;;;6.23;5.63;;;;;;;25.18;56.33;99990.78;5034041;28;20426;-73
2023/06/11 02:02:20;;;;;;;5.30;4.80;;;;;;;25.18;56.41;99990.00;5033740;28;20708;-72
2023/06/11 02:04:46;;;;;;;5.97;5.33;;;;;;;25.19;56.61;99992.44;5065879;28;20184;-72
2023/06/11 02:07:11;;;;;;;7.80;5.30;;;;;;;25.18;56.67;99990.78;5034380;28;20238;-73
2023/06/11 02:09:37;;;;;;;10.97;5.77;;;;;;;25.17;56.66;99983.38;5033162;28;20218;-72
2023/06/11 02:12:02;;;;;;;6.43;5.47;;;;;;;25.17;56.72;99992.06;5073171;28;20596;-73
2023/06/11 02:14:28;;;;;;;5.27;4.73;;;;;;;25.16;56.62;99984.66;5072809;28;20228;-72
2023/06/11 02:16:53;;;;;;;5.90;5.30;;;;;;;25.17;56.62;99991.22;5080948;28;20186;-73
2023/06/11 02:19:19;;;;;;;6.63;5.20;;;;;;;25.16;56.14;99987.53;5055652;28;20185;-73
2023/06/11 02:21:46;;;;;;;6.30;5.30;;;;;;;25.16;56.68;99993.31;5070388;28;20178;-72
2023/06/11 02:24:11;;;;;;;5.97;5.13;;;;;;;25.15;56.21;99985.91;5056627;28;20178;-73
2023/06/11 02:26:36;;;;;;;6.53;5.17;;;;;;;25.15;56.30;99980.13;5072584;28;20853;-72
2023/06/11 02:29:02;;;;;;;6.97;6.00;;;;;;;25.15;56.54;99988.78;5068007;28;20186;-72
2023/06/11 02:31:27;;;;;;;6.20;5.60;;;;;;;25.14;56.50;99978.47;5056557;28;20217;-73
2023/06/11 02:33:53;;;;;;;10.43;6.37;;;;;;;25.14;56.42;99990.03;5063891;28;20194;-72
2023/06/11 02:36:18;;;;;;;6.30;5.70;;;;;;;25.14;55.71;99990.03;5054879;28;20182;-72
2023/06/11 02:38:44;;;;;;;7.17;6.20;;;;;;;25.14;56.19;99989.22;5089253;28;20193;-72
2023/06/11 02:41:09;;;;;;;6.70;5.83;;;;;;;25.13;56.46;99996.25;5072229;28;20178;-73
2023/06/11 02:43:34;;;;;;;6.83;5.50;;;;;;;25.12;56.38;99992.53;5042423;28;20189;-72
2023/06/11 02:46:00;;;;;;;6.60;5.80;;;;;;;25.14;56.41;99998.69;5072335;28;20182;-73
2023/06/11 02:48:25;;;;;;;6.47;5.83;;;;;;;25.13;56.31;99990.47;5069582;28;21572;-73
2023/06/11 02:50:51;;;;;;;6.30;5.70;;;;;;;25.13;56.30;99993.38;5058036;28;20243;-73
2023/06/11 02:53:16;;;;;;;6.27;5.30;;;;;;;25.13;56.43;99991.28;5072960;28;20186;-73
2023/06/11 02:55:42;;;;;;;6.67;5.20;;;;;;;25.12;56.54;100001.19;5074515;28;20551;-72
2023/06/11 02:58:07;;;;;;;6.77;5.50;;;;;;;25.13;56.20;99999.94;5052609;28;20240;-72
2023/06/11 03:00:32;;;;;;;6.93;5.60;;;;;;;25.13;56.51;100002.03;5072439;28;20182;-72
2023/06/11 03:02:58;;;;;;;7.07;5.20;;;;;;;25.12;56.53;99997.47;5073914;28;20190;-73
2023/06/11 03:05:23;;;;;;;5.70;4.90;;;;;;;25.12;56.13;99995.44;5072455;28;20189;-73
2023/06/11 03:07:49;;;;;;;6.30;5.70;;;;;;;25.11;56.22;99999.56;5055925;28;20533;-73
2023/06/11 03:10:14;;;;;;;6.70;6.00;;;;;;;25.11;56.55;100002.47;5058147;28;20248;-73
2023/06/11 03:12:40;;;;;;;5.90;5.00;;;;;;;25.10;56.29;99997.94;5062475;28;20569;-73
2023/06/11 03:15:06;;;;;;;6.13;5.50;;;;;;;25.10;56.40;100000.81;5068732;28;20686;-73
2023/06/11 03:17:31;;;;;;;6.00;5.27;;;;;;;25.11;56.71;100005.34;5038877;28;20384;-73
2023/06/11 03:19:57;;;;;;;6.93;5.47;;;;;;;25.10;56.50;100000.00;5038387;28;20485;-73
2023/06/11 03:22:22;;;;;;;5.77;5.17;;;;;;;25.10;56.31;100006.59;5054936;28;20206;-73
2023/06/11 03:24:47;;;;;;;9.63;5.90;;;;;;;25.09;56.58;100009.94;5067855;28;20194;-73
2023/06/11 03:27:13;;;;;;;6.00;5.40;;;;;;;25.09;56.12;100004.16;5045427;28;20187;-73
2023/06/11 03:29:38;;;;;;;6.23;5.63;;;;;;;25.08;56.39;100011.97;5070970;28;20189;-73
2023/06/11 03:32:04;;;;;;;6.13;5.53;;;;;;;25.08;56.26;100020.66;5051717;28;20229;-73
2023/06/11 03:34:30;;;;;;;6.73;5.47;;;;;;;25.08;56.34;100014.06;5072192;28;20188;-72
2023/06/11 03:36:55;;;;;;;6.83;5.57;;;;;;;25.07;56.47;100006.63;5053405;28;20420;-73
2023/06/11 03:39:21;;;;;;;5.67;5.07;;;;;;;25.08;56.17;100005.41;5058804;28;20181;-73
2023/06/11 03:41:46;;;;;;;7.00;5.90;;;;;;;25.08;56.50;100005.41;5065156;28;20545;-73
2023/06/11 03:44:12;;;;;;;7.83;5.63;;;;;;;25.07;56.63;100006.63;5050960;28;20194;-72
2023/06/11 03:46:37;;;;;;;6.37;5.30;;;;;;;25.07;56.58;100013.25;5045734;28;20205;-72
2023/06/11 03:49:03;;;;;;;7.43;5.63;;;;;;;25.06;56.47;100011.59;5051048;28;20189;-73
2023/06/11 03:51:28;;;;;;;5.90;5.30;;;;;;;25.05;56.68;100004.19;5055184;28;20197;-73
2023/06/11 03:53:53;;;;;;;5.87;4.97;;;;;;;25.05;56.52;100018.66;5057003;28;20178;-72
2023/06/11 03:56:19;;;;;;;6.43;5.63;;;;;;;25.06;56.62;100014.50;5055184;28;20544;-73
2023/06/11 03:58:44;;;;;;;6.00;5.40;;;;;;;25.06;56.40;100020.28;5055139;28;20904;-73
2023/06/11 04:01:10;;;;;;;5.93;5.33;;;;;;;25.05;56.17;100027.31;5035194;28;20680;-73
2023/06/11 04:03:35;;;;;;;7.57;5.97;;;;;;;25.05;56.82;100020.69;5051759;28;20654;-72
2023/06/11 04:06:01;;;;;;;6.93;5.70;;;;;;;25.04;56.74;100031.44;5074091;28;20182;-72
2023/06/11 04:08:26;;;;;;;7.47;5.93;;;;;;;25.04;56.40;100025.66;5061811;28;20624;-73
2023/06/11 04:10:52;;;;;;;5.47;4.77;;;;;;;25.04;56.32;100036.41;5051313;28;20231;-73
2023/06/11 04:13:17;;;;;;;5.97;5.30;;;;;;;25.03;56.78;100035.56;5068707;28;20198;-73
2023/06/11 04:15:43;;;;;;;6.87;5.50;;;;;;;25.02;56.52;100028.16;5050327;28;20198;-72
2023/06/11 04:18:09;;;;;;;6.33;5.73;;;;;;;25.03;56.91;100032.69;5056239;28;20635;-72
2023/06/11 04:20:35;;;;;;;6.00;5.40;;;;;;;25.02;56.61;100031.06;5055010;28;20262;-72
2023/06/11 04:23:00;;;;;;;6.13;5.23;;;;;;;25.02;56.76;100031.06;5088054;28;20412;-73
2023/06/11 04:25:26;;;;;;;5.40;4.90;;;;;;;25.02;56.70;100045.50;5053642;28;20900;-73
2023/06/11 04:27:52;;;;;;;6.53;5.20;;;;;;;25.02;56.71;100048.38;5064188;28;20269;-73
2023/06/11 04:30:18;;;;;;;6.27;5.50;;;;;;;25.02;56.68;100054.16;5035005;28;20203;-72
2023/06/11 04:32:44;;;;;;;5.90;5.30;;;;;;;25.01;56.40;100043.88;5051624;28;20402;-72
2023/06/11 04:35:10;;;;;;;7.33;5.70;;;;;;;25.02;56.51;100050.44;5051040;28;20622;-73
2023/06/11 04:37:40;;;;;;;6.70;5.47;;;;;;;25.03;56.89;100052.09;5071699;28;20293;-73
2023/06/11 04:40:10;;;;;;;7.20;5.40;;;;;;;25.05;56.47;100049.59;5056469;28;20159;-73
2023/06/11 04:42:38;;;;;;;6.80;6.10;;;;;;;25.07;56.25;100050.78;5057744;28;20492;-72
2023/06/11 04:45:04;;;;;;;5.73;5.10;;;;;;;25.09;56.41;100056.16;5071613;28;21054;-72
2023/06/11 04:47:32;;;;;;;7.17;5.80;;;;;;;25.10;56.43;100054.91;5054609;28;20459;-73
2023/06/11 04:50:02;;;;;;;7.00;5.47;;;;;;;25.09;56.62;100056.16;5056294;28;20432;-73
2023/06/11 04:52:31;;;;;;;7.07;5.30;;;;;;;25.09;56.38;100051.16;5072149;28;20786;-73
2023/06/11 04:54:58;;;;;;;6.93;5.17;;;;;;;25.10;56.71;100055.72;5038495;28;20939;-72
2023/06/11 04:57:24;;;;;;;6.47;5.40;;;;;;;25.09;56.37;100056.16;5054777;28;21025;-72
2023/06/11 04:59:51;;;;;;;6.93;5.97;;;;;;;25.08;56.51;100061.09;5083865;28;20428;-72
2023/06/11 05:02:17;;;;;;;6.40;5.70;;;;;;;25.09;56.38;100062.72;5056194;28;20710;-73
2023/06/11 05:04:43;;;;;;;6.90;6.20;;;;;;;25.10;56.73;100067.28;5069346;28;20911;-72
2023/06/11 05:07:08;;;;;;;11.00;5.50;;;;;;;25.12;56.36;100070.53;5072907;28;20465;-73
2023/06/11 05:09:34;;;;;;;6.07;5.13;;;;;;;25.12;56.40;100066.81;5050448;28;20187;-72
2023/06/11 05:11:59;;;;;;;5.87;5.07;;;;;;;25.13;56.42;100065.59;5050856;28;20231;-73
2023/06/11 05:14:25;;;;;;;7.47;5.47;;;;;;;25.13;56.85;100062.72;5066127;28;20202;-73
2023/06/11 05:16:50;;;;;;;7.80;5.70;;;;;;;25.14;56.49;100073.00;5059557;28;20197;-72
2023/06/11 05:19:16;;;;;;;7.37;5.77;;;;;;;25.15;56.51;100069.69;5058559;28;20674;-73
2023/06/11 05:21:41;;;;;;;5.90;5.30;;;;;;;25.16;56.78;100068.44;5077952;28;20570;-73
2023/06/11 05:24:07;;;;;;;8.63;5.90;;;;;;;25.17;56.66;100070.06;5072203;28;20181;-73
2023/06/11 05:26:36;;;;;;;6.80;5.53;;;;;;;25.17;56.66;100072.13;5074552;28;20166;-73
2023/06/11 05:29:02;;;;;;;5.80;5.20;;;;;;;25.17;56.27;100081.63;5057789;28;20178;-73
2023/06/11 05:31:29;;;;;;;6.80;5.93;;;;;;;25.18;56.29;100065.94;5059569;28;20538;-72
2023/06/11 05:33:55;;;;;;;5.57;5.03;;;;;;;25.15;56.38;100075.47;5074972;28;20393;-72
2023/06/11 05:36:21;;;;;;;8.50;6.37;;;;;;;25.15;56.32;100077.53;5038620;28;20444;-72
2023/06/11 05:38:46;;;;;;;7.10;5.70;;;;;;;25.13;56.32;100075.06;5077116;28;20507;-72
2023/06/11 05:41:12;;;;;;;7.53;6.63;;;;;;;25.14;56.62;100070.13;5058057;28;20269;-73
2023/06/11 05:43:37;;;;;;;6.80;5.97;;;;;;;25.14;56.38;100076.69;5076648;28;20190;-71
2023/06/11 05:46:03;;;;;;;6.57;5.40;;;;;;;25.14;56.65;100075.91;5040952;28;20194;-71
2023/06/11 05:48:29;;;;;;;6.33;5.43;;;;;;;25.15;56.49;100078.38;5056166;28;20193;-71
2023/06/11 05:50:54;;;;;;;7.20;6.00;;;;;;;25.13;57.09;100077.16;5070731;28;20215;-73
2023/06/11 05:53:20;;;;;;;7.03;6.30;;;;;;;25.11;56.86;100080.47;5065666;28;20193;-73
2023/06/11 05:55:45;;;;;;;7.27;6.17;;;;;;;25.12;57.40;100076.31;5057587;28;20701;-73
2023/06/11 05:58:11;;;;;;;7.03;5.70;;;;;;;25.13;57.03;100083.75;5054050;28;20368;-73
2023/06/11 06:00:37;;;;;;;6.43;5.73;;;;;;;25.15;56.83;100084.16;5053828;28;20209;-73
2023/06/11 06:03:03;;;;;;;7.83;5.83;;;;;;;25.17;56.61;100086.56;5045755;28;20218;-73
2023/06/11 06:05:29;;;;;;;6.90;6.20;;;;;;;25.19;56.63;100096.44;5057512;28;20436;-72
2023/06/11 06:07:54;;;;;;;7.57;6.03;;;;;;;25.22;56.14;100091.88;5073921;28;20419;-73
2023/06/11 06:10:20;;;;;;;6.60;5.77;;;;;;;25.23;56.54;100091.47;5076894;28;20336;-73
2023/06/11 06:12:45;;;;;;;6.00;5.40;;;;;;;25.24;56.70;100087.31;5049306;28;20190;-73
2023/06/11 06:15:11;;;;;;;7.17;5.83;;;;;;;25.24;56.67;100087.31;5048264;28;20217;-73
2023/06/11 06:17:36;;;;;;;7.30;6.10;;;;;;;25.24;56.08;100089.41;5056807;28;20174;-73
2023/06/11 06:20:02;;;;;;;8.00;5.70;;;;;;;25.22;56.83;100089.81;5057022;28;20163;-73
2023/06/11 06:22:27;;;;;;;6.50;5.90;;;;;;;25.19;56.65;100093.56;5037328;28;20187;-73
2023/06/11 06:24:53;;;;;;;7.27;6.50;;;;;;;25.18;56.45;100096.91;5037266;28;20179;-72
2023/06/11 06:27:18;;;;;;;8.13;6.17;;;;;;;25.17;56.65;100095.25;5036676;28;20201;-73
2023/06/11 06:29:44;;;;;;;7.73;6.80;;;;;;;25.15;56.66;100098.59;5064632;28;20179;-73
2023/06/11 06:32:09;;;;;;;6.50;5.70;;;;;;;25.15;56.81;100101.47;5072054;28;20195;-73
2023/06/11 06:34:35;;;;;;;6.63;5.70;;;;;;;25.13;56.74;100098.19;5053258;28;20754;-73
2023/06/11 06:37:00;;;;;;;6.53;5.40;;;;;;;25.13;56.75;100103.97;5037198;28;20179;-73
2023/06/11 06:39:26;;;;;;;6.57;5.87;;;;;;;25.12;56.77;100113.88;5050543;28;20232;-73
2023/06/11 06:41:52;;;;;;;7.17;6.47;;;;;;;25.13;57.01;100108.94;5071156;28;20581;-75
2023/06/11 06:44:17;;;;;;;6.37;5.73;;;;;;;25.12;57.33;100110.16;5045355;28;20171;-73
2023/06/11 06:46:42;;;;;;;7.07;6.37;;;;;;;25.12;57.38;100108.09;5054572;28;20175;-73
2023/06/11 06:49:08;;;;;;;6.53;5.93;;;;;;;25.13;56.97;100114.72;5035974;28;20167;-73
2023/06/11 06:51:35;;;;;;;10.53;6.10;;;;;;;25.14;57.21;100114.25;5052548;28;20186;-72
2023/06/11 06:54:01;;;;;;;7.47;6.30;;;;;;;25.14;57.29;100116.34;5041751;28;20183;-73
2023/06/11 06:56:26;;;;;;;7.50;6.37;;;;;;;25.15;57.27;100107.25;5055742;28;20427;-73
2023/06/11 06:58:52;;;;;;;7.10;6.40;;;;;;;25.15;57.13;100113.03;5073078;28;20158;-73
2023/06/11 07:01:17;;;;;;;8.50;6.33;;;;;;;25.16;57.23;100114.66;5056823;28;20174;-73
2023/06/11 07:03:43;;;;;;;7.17;6.47;;;;;;;25.16;57.09;100117.56;5075185;28;20182;-73
2023/06/11 07:06:08;;;;;;;7.63;6.50;;;;;;;25.17;56.75;100115.47;5057372;28;20232;-73
2023/06/11 07:08:34;;;;;;;7.73;6.33;;;;;;;25.15;57.08;100118.81;5056415;28;20182;-73
2023/06/11 07:10:59;;;;;;;7.60;6.87;;;;;;;25.15;57.17;100124.59;5056380;28;20674;-73
2023/06/11 07:13:25;;;;;;;7.10;6.37;;;;;;;25.15;57.13;100120.88;5046256;28;20646;-73
2023/06/11 07:15:50;;;;;;;7.17;6.37;;;;;;;25.14;57.30;100117.16;5029880;28;20234;-73
2023/06/11 07:18:16;;;;;;;6.90;6.07;;;;;;;25.14;57.33;100117.16;5069776;28;20169;-72
2023/06/11 07:20:42;;;;;;;6.90;6.20;;;;;;;25.13;57.22;100121.31;5085520;28;20193;-72
2023/06/11 07:23:07;;;;;;;8.13;7.00;;;;;;;25.13;57.37;100117.63;5073000;28;20175;-73
2023/06/11 07:25:33;;;;;;;8.40;7.03;;;;;;;25.12;57.60;100113.88;5074973;28;20561;-73
2023/06/11 07:28:00;;;;;;;7.03;6.33;;;;;;;25.11;57.64;100123.81;5091603;28;20223;-73
2023/06/11 07:30:26;;;;;;;7.80;7.00;;;;;;;25.11;57.82;100120.91;5058553;28;20289;-73
2023/06/11 07:32:53;;;;;;;8.57;6.63;;;;;;;25.12;58.30;100125.44;5053705;28;20952;-73
2023/06/11 07:35:19;;;;;;;7.70;6.43;;;;;;;25.11;57.48;100120.91;5069560;28;20424;-73
2023/06/11 07:37:45;;;;;;;7.13;6.30;;;;;;;25.11;57.88;100123.81;5054875;28;20450;-73
2023/06/11 07:40:12;;;;;;;7.53;6.40;;;;;;;25.12;57.50;100118.84;5040878;28;20416;-73
2023/06/11 07:42:37;;;;;;;8.43;7.27;;;;;;;25.12;57.75;100119.66;5042092;28;20462;-72
2023/06/11 07:45:03;;;;;;;8.50;6.63;;;;;;;25.11;58.09;100125.88;5071546;28;20907;-73
2023/06/11 07:47:29;;;;;;;7.60;6.63;;;;;;;25.11;57.93;100126.69;5088654;28;20187;-73
2023/06/11 07:49:55;;;;;;;6.77;6.07;;;;;;;25.11;57.76;100125.88;5073036;28;20419;-72
2023/06/11 07:52:20;;;;;;;7.43;6.73;;;;;;;25.11;57.82;100117.19;5071958;28;20696;-73
2023/06/11 07:54:46;;;;;;;7.23;6.53;;;;;;;25.10;57.87;100122.19;5055601;28;20521;-72
2023/06/11 07:57:12;;;;;;;8.17;7.17;;;;;;;25.10;58.47;100122.19;5056469;28;20260;-72
2023/06/11 07:59:41;;;;;;;11.03;6.60;;;;;;;25.11;58.35;100111.41;5072459;28;20266;-74
2023/06/11 08:02:07;;;;;;;8.50;6.57;;;;;;;25.11;58.08;100118.03;5043354;28;20443;-72
2023/06/11 08:04:33;;;;;;;7.60;6.80;;;;;;;25.11;57.99;100118.03;5040877;28;20437;-73
2023/06/11 08:06:58;;;;;;;7.50;6.70;;;;;;;25.11;58.41;100118.03;5067382;28;20186;-73
2023/06/11 08:09:24;;;;;;;8.23;7.37;;;;;;;25.11;57.84;100115.16;5050621;28;20182;-72
2023/06/11 08:11:49;;;;;;;8.63;6.83;;;;;;;25.11;58.36;100114.31;5088784;28;20226;-73
2023/06/11 08:14:18;;;;;;;7.90;7.10;;;;;;;25.11;58.14;100112.25;5029661;28;20217;-73
2023/06/11 08:16:45;;;;;;;8.60;7.00;;;;;;;25.11;57.97;100111.41;5051687;28;20179;-73
2023/06/11 08:19:11;;;;;;;9.57;6.93;;;;;;;25.11;57.83;100106.47;5068276;28;20465;-72
2023/06/11 08:21:37;;;;;;;8.57;6.90;;;;;;;25.11;58.22;100106.47;5089394;28;20472;-73
2023/06/11 08:24:02;;;;;;;9.60;8.00;;;;;;;25.11;58.01;100105.66;5059003;28;20432;-73
2023/06/11 08:26:28;;;;;;;9.13;7.20;;;;;;;25.12;58.04;100105.22;5070077;28;20223;-73
2023/06/11 08:28:53;;;;;;;8.17;7.30;;;;;;;25.12;58.31;100108.09;5080196;28;20182;-74
2023/06/11 08:31:19;;;;;;;8.50;7.60;;;;;;;25.11;58.18;100103.59;5037676;28;20213;-73
2023/06/11 08:33:44;;;;;;;9.50;6.80;;;;;;;25.12;57.85;100105.22;5071446;28;20188;-72
2023/06/11 08:36:10;;;;;;;10.40;7.30;;;;;;;25.11;57.65;100094.91;5085774;28;20190;-72
2023/06/11 08:38:35;;;;;;;8.43;7.37;;;;;;;25.11;58.17;100100.69;5050672;28;20194;-73
2023/06/11 08:41:01;;;;;;;7.80;7.00;;;;;;;25.11;58.10;100094.91;5042139;28;20182;-73
2023/06/11 08:43:26;;;;;;;11.13;7.23;;;;;;;25.11;58.19;100086.25;5046623;28;20201;-73
2023/06/11 08:45:52;;;;;;;7.70;6.90;;;;;;;25.10;58.20;100081.72;5018065;28;20178;-73
2023/06/11 08:48:22;;;;;;;8.33;6.97;;;;;;;25.12;58.03;100087.06;5022829;28;20193;-73
2023/06/11 08:50:49;;;;;;;8.60;7.70;;;;;;;25.11;57.88;100086.25;5087259;28;20200;-73
2023/06/11 08:53:14;;;;;;;8.70;7.80;;;;;;;25.12;58.11;100084.16;5072812;28;20424;-73
2023/06/11 08:55:41;;;;;;;11.67;7.70;;;;;;;25.11;57.94;100086.25;5091752;28;20844;-73
2023/06/11 08:58:06;;;;;;;8.20;7.00;;;;;;;25.11;58.10;100092.03;5054434;28;20195;-73
2023/06/11 09:00:32;;;;;;;8.83;6.60;;;;;;;25.12;58.25;100079.22;5054072;28;20467;-73
2023/06/11 09:02:57;;;;;;;8.73;7.77;;;;;;;25.12;58.04;100079.22;5056765;28;20189;-73
2023/06/11 09:05:23;;;;;;;9.87;8.50;;;;;;;25.14;57.79;100076.69;5086189;28;20186;-73
2023/06/11 09:07:50;;;;;;;9.00;7.60;;;;;;;25.13;57.37;100075.06;5066942;28;20630;-73
2023/06/11 09:10:15;;;;;;;10.10;7.63;;;;;;;25.13;57.92;100069.28;5056180;28;20440;-73
2023/06/11 09:12:41;;;;;;;8.30;7.37;;;;;;;25.12;57.51;100073.44;5081969;28;20456;-73
2023/06/11 09:15:06;;;;;;;7.77;6.97;;;;;;;25.13;57.74;100075.06;5057164;28;20266;-73
2023/06/11 09:17:35;;;;;;;8.20;6.90;;;;;;;25.13;57.68;100075.06;5060614;28;20345;-73
2023/06/11 09:20:06;;;;;;;9.40;7.33;;;;;;;25.12;57.72;100076.31;5075533;28;20182;-73
2023/06/11 09:22:32;;;;;;;7.53;6.60;;;;;;;25.13;57.82;100075.06;5059796;28;20428;-73
2023/06/11 09:25:01;;;;;;;7.30;6.60;;;;;;;25.14;57.45;100075.91;5077369;28;20450;-73
2023/06/11 09:27:27;;;;;;;14.40;7.40;;;;;;;25.13;57.36;100072.19;5070304;28;20269;-73
2023/06/11 09:29:53;;;;;;;7.97;6.90;;;;;;;25.14;57.04;100070.13;5037880;28;20494;-73
2023/06/11 09:32:18;;;;;;;7.30;6.60;;;;;;;25.15;57.12;100075.47;5036966;28;20468;-72
2023/06/11 09:34:45;;;;;;;7.10;6.40;;;;;;;25.15;57.39;100072.59;5038526;28;20177;-73
2023/06/11 09:37:11;;;;;;;7.10;6.20;;;;;;;25.14;57.35;100068.03;5059630;28;20235;-73
2023/06/11 09:39:36;;;;;;;7.90;7.10;;;;;;;25.15;56.93;100068.88;5086341;28;20427;-73
2023/06/11 09:42:01;;;;;;;8.30;6.97;;;;;;;25.14;57.55;100079.59;5045787;28;20177;-73
2023/06/11 09:44:28;;;;;;;6.63;5.93;;;;;;;25.16;57.09;100085.78;5063176;28;20190;-73
2023/06/11 09:46:53;;;;;;;8.17;7.37;;;;;;;25.15;56.99;100078.38;5045865;28;20182;-73
2023/06/11 09:49:19;;;;;;;7.20;6.13;;;;;;;25.15;57.11;100077.53;5075270;28;20766;-73
2023/06/11 09:51:44;;;;;;;10.17;6.83;;;;;;;25.14;57.12;100076.69;5079334;28;20199;-73
2023/06/11 09:54:10;;;;;;;8.07;7.23;;;;;;;25.13;56.99;100080.84;5046633;28;20190;-73
2023/06/11 09:56:37;;;;;;;7.40;6.33;;;;;;;25.15;57.20;100081.25;5072926;28;20181;-73
2023/06/11 09:59:02;;;;;;;7.23;6.53;;;;;;;25.15;56.97;100084.16;5075351;28;20455;-73
2023/06/11 10:01:29;;;;;;;8.70;7.27;;;;;;;25.16;56.76;100079.16;5080809;28;20947;-73
2023/06/11 10:03:58;;;;;;;8.03;7.13;;;;;;;25.17;57.11;100077.91;5062223;28;20716;-72
2023/06/11 10:06:25;;;;;;;7.70;6.87;;;;;;;25.18;56.81;100077.47;5036468;28;20436;-73
2023/06/11 10:08:51;;;;;;;8.07;6.87;;;;;;;25.17;56.76;100075.03;5067470;28;20423;-74
2023/06/11 10:11:19;;;;;;;6.83;6.00;;;;;;;25.18;56.61;100076.69;5056382;28;20475;-73
2023/06/11 10:13:57;;;;;;;7.50;6.60;;;;;;;25.16;57.19;100076.28;5068647;28;20532;-73
2023/06/11 10:16:23;;;;;;;7.27;6.57;;;;;;;25.17;57.24;100081.63;5055407;28;20473;-73
2023/06/11 10:18:50;;;;;;;7.20;6.50;;;;;;;25.16;56.94;100071.31;5055746;28;20424;-73
2023/06/11 10:21:15;;;;;;;7.57;6.30;;;;;;;25.16;57.28;100077.09;5040460;28;20186;-73
2023/06/11 10:23:41;;;;;;;7.90;6.33;;;;;;;25.16;56.78;100080.00;5043582;28;20440;-73
2023/06/11 10:26:09;;;;;;;8.00;7.20;;;;;;;25.16;57.02;100074.22;5060321;28;20265;-73
2023/06/11 10:28:41;;;;;;;6.90;6.20;;;;;;;25.18;57.03;100068.00;5057334;28;21206;-72
2023/06/11 10:31:07;;;;;;;6.00;5.40;;;;;;;25.18;56.68;100068.00;5061085;28;20459;-75
2023/06/11 10:33:45;;;;;;;7.30;5.93;;;;;;;25.19;56.99;100063.88;5061600;28;20429;-73
2023/06/11 10:36:35;;;;;;;7.40;6.03;;;;;;;25.18;56.53;100056.47;5045713;28;20235;-72
2023/06/11 10:39:09;;;;;;;7.90;5.80;;;;;;;25.19;56.63;100061.78;5077110;28;20823;-72
2023/06/11 10:41:39;;;;;;;8.87;7.17;;;;;;;25.20;56.16;100077.88;5065513;28;20439;-73
2023/06/11 10:44:04;;;;;;;11.30;6.90;;;;;;;25.20;56.93;100077.88;5079331;28;20435;-73
2023/06/11 10:46:30;;;;;;;6.70;5.60;;;;;;;25.20;56.43;100075.00;5060275;28;20416;-73
2023/06/11 10:48:55;;;;;;;6.87;6.00;;;;;;;25.20;56.84;100072.13;5055903;28;20541;-73
2023/06/11 10:51:21;;;;;;;7.53;6.00;;;;;;;25.21;56.33;100075.81;5049334;28;20210;-73
2023/06/11 10:53:58;;;;;;;6.10;5.50;;;;;;;25.18;56.95;100077.47;5063105;28;20193;-73
2023/06/11 10:56:24;;;;;;;7.57;5.53;;;;;;;25.21;56.70;100075.81;5080014;28;20178;-72
2023/06/11 10:58:53;;;;;;;8.77;6.77;;;;;;;25.19;56.65;100073.34;5075073;28;20443;-75
2023/06/11 11:01:20;;;;;;;9.70;6.63;;;;;;;25.17;56.38;100070.06;5035232;28;20425;-73
2023/06/11 11:03:46;;;;;;;10.77;6.47;;;;;;;25.20;56.01;100075.00;5075385;28;20469;-72
2023/06/11 11:06:13;;;;;;;6.80;5.77;;;;;;;25.20;55.89;100069.22;5078276;28;20434;-73
2023/06/11 11:08:38;;;;;;;8.23;6.03;;;;;;;25.21;55.81;100073.75;5068427;28;21036;-73
2023/06/11 11:11:04;;;;;;;7.63;6.47;;;;;;;25.22;55.86;100078.25;5063273;28;20476;-73
2023/06/11 11:13:29;;;;;;;8.83;6.60;;;;;;;25.19;56.08;100067.56;5064519;28;21038;-72
2023/06/11 11:15:55;;;;;;;8.00;6.47;;;;;;;25.19;55.94;100072.53;5063339;28;20201;-73
2023/06/11 11:18:20;;;;;;;11.17;6.60;;;;;;;25.18;56.09;100068.81;5090755;28;20225;-73
2023/06/11 11:20:46;;;;;;;10.97;6.40;;;;;;;25.19;56.33;100053.09;5040638;28;20269;-72
2023/06/11 11:23:11;;;;;;;7.13;6.00;;;;;;;25.20;56.03;100069.22;5063705;28;20671;-72